Time;durP1;ratioP1;P1;durP2;ratioP2;P2;SDS_P1;SDS_P2;PMS_P1;PMS_P2;Temp;Humidity;BMP_temperature;BMP_pressure;BME280_temperature;BME280_humidity;BME280_pressure;Samples;Min_cycle;Max_cycle;Signal;HPM_P1;HPM_P2
2023/09/21 00:01:03;;;;;;;1.45;1.17;;;;;;;21.88;47.71;99844.19;16114864;19;130858;-52
2023/09/21 00:06:25;;;;;;;2.20;1.27;;;;;;;21.87;47.73;99844.47;16110695;19;131147;-51
2023/09/21 00:11:47;;;;;;;2.42;1.30;;;;;;;21.86;47.19;99842.81;16116445;19;129933;-51
2023/09/21 00:17:09;;;;;;;3.17;1.17;;;;;;;21.85;47.59;99835.59;16119962;19;129976;-49
2023/09/21 00:22:32;;;;;;;3.25;1.17;;;;;;;21.85;47.23;99824.44;16129935;19;130160;-50
2023/09/21 00:27:55;;;;;;;2.15;1.30;;;;;;;21.82;47.17;99823.91;16126516;19;129701;-53
2023/09/21 00:33:17;;;;;;;1.33;1.05;;;;;;;21.83;47.75;99820.00;16124985;19;129299;-49
2023/09/21 00:38:40;;;;;;;2.95;1.48;;;;;;;21.83;47.27;99799.69;16124127;19;129437;-51
2023/09/21 00:44:09;;;;;;;1.33;0.80;;;;;;;21.84;47.44;99793.00;16127648;19;129594;-53
2023/09/21 00:49:32;;;;;;;1.75;0.90;;;;;;;21.80;47.67;99784.41;16126493;19;130547;-52
2023/09/21 00:54:55;;;;;;;1.40;1.00;;;;;;;21.80;47.39;99787.19;16124839;19;131062;-51
2023/09/21 01:00:25;;;;;;;1.42;0.82;;;;;;;21.79;47.48;99774.38;16124499;19;131142;-50
2023/09/21 01:05:50;;;;;;;1.48;0.70;;;;;;;21.79;47.53;99771.59;16125610;19;130140;-52
2023/09/21 01:11:14;;;;;;;1.53;0.70;;;;;;;21.79;47.29;99770.78;16122830;19;129554;-48
2023/09/21 01:16:36;;;;;;;2.13;0.80;;;;;;;21.77;47.25;99765.53;16123189;19;131496;-50
2023/09/21 01:22:06;;;;;;;1.70;0.70;;;;;;;21.77;47.43;99759.97;16122608;19;130254;-49
2023/09/21 01:27:28;;;;;;;1.10;0.70;;;;;;;21.76;47.62;99758.28;16118672;19;131414;-51
2023/09/21 01:32:52;;;;;;;1.95;1.10;;;;;;;21.76;47.43;99751.88;16119148;19;130230;-55
2023/09/21 01:38:14;;;;;;;0.95;0.70;;;;;;;21.76;47.70;99754.66;16118185;19;130399;-54
2023/09/21 01:43:39;;;;;;;1.10;0.60;;;;;;;21.75;47.29;99751.06;16117463;19;131261;-51
2023/09/21 01:49:01;;;;;;;0.60;0.60;;;;;;;21.75;47.29;99745.50;16120269;19;130793;-52
2023/09/21 01:54:23;;;;;;;1.00;0.70;;;;;;;21.74;47.18;99735.50;16120020;19;129386;-51
2023/09/21 01:59:45;;;;;;;1.23;0.70;;;;;;;21.74;47.56;99724.34;16116614;19;129940;-52
2023/09/21 02:05:11;;;;;;;1.30;0.80;;;;;;;21.73;46.98;99736.59;16119002;19;129997;-52
2023/09/21 02:10:38;;;;;;;0.85;0.55;;;;;;;21.76;46.99;99724.03;16117369;19;130335;-56
2023/09/21 02:16:01;;;;;;;1.70;0.60;;;;;;;21.74;47.25;99713.22;16117598;19;130693;-50
2023/09/21 02:21:24;;;;;;;1.40;0.60;;;;;;;21.73;47.57;99711.56;16118810;19;130507;-52
2023/09/21 02:26:46;;;;;;;0.98;0.80;;;;;;;21.72;47.22;99715.47;16121174;19;134379;-53
2023/09/21 02:32:10;;;;;;;0.98;0.57;;;;;;;21.72;47.19;99715.47;16113151;19;131551;-52
2023/09/21 02:37:32;;;;;;;1.23;0.70;;;;;;;21.72;47.38;99701.53;16114158;19;130628;-50
2023/09/21 02:42:55;;;;;;;1.00;0.90;;;;;;;21.71;47.14;99697.09;16114735;19;130505;-53
2023/09/21 02:48:17;;;;;;;1.50;0.88;;;;;;;21.71;46.93;99699.06;16116087;19;129591;-48
2023/09/21 02:53:39;;;;;;;1.83;1.00;;;;;;;21.71;47.28;99699.06;16114668;19;130034;-51
2023/09/21 02:59:01;;;;;;;1.20;0.90;;;;;;;21.70;46.83;99687.09;16114339;19;129898;-52
2023/09/21 03:04:23;;;;;;;1.33;0.70;;;;;;;21.69;46.94;99688.22;16112322;19;130978;-52
2023/09/21 03:09:45;;;;;;;4.00;1.00;;;;;;;21.69;47.29;99677.09;16116885;19;130095;-54
2023/09/21 03:15:13;;;;;;;1.40;1.10;;;;;;;21.69;47.40;99676.28;16118284;19;130833;-54
2023/09/21 03:20:36;;;;;;;1.88;0.73;;;;;;;21.68;47.11;99675.41;16114586;19;130892;-53
2023/09/21 03:25:58;;;;;;;2.05;0.88;;;;;;;21.69;46.90;99668.72;16113589;19;129411;-55
2023/09/21 03:31:22;;;;;;;3.30;0.90;;;;;;;21.67;47.13;99670.97;16114844;19;130381;-53
2023/09/21 03:36:46;;;;;;;1.30;1.02;;;;;;;21.67;47.35;99673.75;16112331;19;129544;-54
2023/09/21 03:42:09;;;;;;;1.17;1.00;;;;;;;21.66;46.96;99678.50;16109515;19;129581;-55
2023/09/21 03:47:31;;;;;;;1.60;0.90;;;;;;;21.65;46.91;99674.06;16112893;19;133996;-51
2023/09/21 03:52:54;;;;;;;1.33;0.85;;;;;;;21.66;47.27;99661.00;16110061;19;129502;-50
2023/09/21 03:58:17;;;;;;;2.80;1.00;;;;;;;21.66;47.10;99661.00;16111744;19;129359;-52
2023/09/21 04:03:39;;;;;;;4.93;0.93;;;;;;;21.66;47.28;99652.66;16109121;19;129456;-54
2023/09/21 04:09:02;;;;;;;1.48;0.90;;;;;;;21.65;46.87;99649.03;16110498;19;131722;-55
2023/09/21 04:14:30;;;;;;;1.27;1.00;;;;;;;21.64;46.99;99657.69;16112814;19;130000;-52
2023/09/21 04:19:53;;;;;;;1.52;0.93;;;;;;;21.65;47.07;99651.00;16113044;19;129882;-50
2023/09/21 04:25:16;;;;;;;1.80;0.70;;;;;;;21.64;47.00;99638.19;16111662;19;129653;-53
2023/09/21 04:30:38;;;;;;;1.90;1.00;;;;;;;21.63;47.08;99645.72;16112043;19;129465;-54
2023/09/21 04:36:04;;;;;;;1.50;0.93;;;;;;;21.63;47.34;99648.50;16108910;19;130748;-50
2023/09/21 04:41:27;;;;;;;1.10;0.82;;;;;;;21.64;46.76;99629.84;16112698;19;134028;-52
2023/09/21 04:46:49;;;;;;;1.33;1.00;;;;;;;21.62;47.14;99626.53;16109020;19;130518;-50
2023/09/21 04:52:11;;;;;;;1.42;0.90;;;;;;;21.62;47.04;99626.53;16109284;19;129844;-54
2023/09/21 04:57:34;;;;;;;1.92;1.10;;;;;;;21.62;47.10;99632.09;16107101;19;129784;-53
2023/09/21 05:02:56;;;;;;;1.80;1.15;;;;;;;21.61;46.84;99634.03;16117994;19;130198;-55
2023/09/21 05:08:18;;;;;;;1.83;1.08;;;;;;;21.61;46.87;99630.44;16125238;19;131297;-54
2023/09/21 05:13:41;;;;;;;2.03;1.20;;;;;;;21.60;47.16;99623.22;16118411;19;131726;-53
2023/09/21 05:19:05;;;;;;;1.60;0.95;;;;;;;21.60;47.09;99634.34;16126302;19;130199;-52
2023/09/21 05:24:27;;;;;;;2.33;1.10;;;;;;;21.60;47.28;99631.56;16131597;19;130321;-54
2023/09/21 05:29:49;;;;;;;1.38;0.90;;;;;;;21.60;47.03;99623.22;16130405;19;131025;-53
2023/09/21 05:35:15;;;;;;;1.23;0.98;;;;;;;21.59;47.11;99625.19;16132085;19;135924;-54
2023/09/21 05:40:40;;;;;;;2.88;1.00;;;;;;;21.59;47.32;99621.56;16124935;19;129942;-55
2023/09/21 05:46:02;;;;;;;1.37;1.03;;;;;;;21.59;47.09;99621.56;16127616;19;130013;-52
2023/09/21 05:51:25;;;;;;;1.67;1.17;;;;;;;21.59;47.19;99624.34;16126503;19;129790;-52
2023/09/21 05:56:47;;;;;;;1.52;1.00;;;;;;;21.58;47.33;99622.69;16128020;19;130863;-51
2023/09/21 06:02:13;;;;;;;0.95;0.77;;;;;;;21.56;46.85;99628.56;16121652;19;129751;-50
2023/09/21 06:07:36;;;;;;;1.65;0.98;;;;;;;21.57;47.27;99632.16;16121624;19;129662;-54
2023/09/21 06:12:58;;;;;;;2.67;1.30;;;;;;;21.56;47.25;99634.13;16116315;19;130359;-51
2023/09/21 06:18:22;;;;;;;2.47;1.00;;;;;;;21.56;47.25;99652.75;16116666;19;131008;-49
2023/09/21 06:23:45;;;;;;;1.83;1.17;;;;;;;21.55;47.45;99643.59;16118858;19;129317;-54
2023/09/21 06:29:08;;;;;;;2.42;0.98;;;;;;;21.54;47.17;99639.16;16121099;19;130579;-52
2023/09/21 06:34:33;;;;;;;3.85;1.48;;;;;;;21.55;47.17;99637.19;16119961;19;129869;-51
2023/09/21 06:39:56;;;;;;;7.85;1.67;;;;;;;21.54;47.24;99638.34;16117420;19;132333;-50
2023/09/21 06:45:19;;;;;;;8.48;1.80;;;;;;;21.55;47.17;99649.16;16113069;19;129553;-53
2023/09/21 06:50:41;;;;;;;5.80;1.45;;;;;;;21.55;47.42;99642.75;16115278;19;129620;-54
2023/09/21 06:56:04;;;;;;;4.05;1.50;;;;;;;21.54;47.31;99655.84;16116294;19;130985;-52
2023/09/21 07:01:26;;;;;;;5.65;1.70;;;;;;;21.54;47.63;99655.03;16114502;19;130351;-54
2023/09/21 07:06:50;;;;;;;4.07;1.60;;;;;;;21.52;47.41;99658.94;16118201;19;129698;-51
2023/09/21 07:12:12;;;;;;;5.53;1.50;;;;;;;21.52;47.45;99660.88;16114746;19;129823;-54
2023/09/21 07:17:36;;;;;;;8.85;1.88;;;;;;;21.52;47.23;99672.84;16116360;19;130017;-51
2023/09/21 07:22:58;;;;;;;4.20;1.50;;;;;;;21.51;47.31;99671.19;16115581;19;129781;-55
2023/09/21 07:28:21;;;;;;;3.78;1.55;;;;;;;21.51;47.82;99668.41;16116190;19;131470;-54
2023/09/21 07:33:43;;;;;;;3.38;1.38;;;;;;;21.50;47.36;99666.75;16115662;19;129529;-53
2023/09/21 07:39:09;;;;;;;5.13;1.70;;;;;;;21.50;47.55;99690.94;16113265;19;129476;-54
2023/09/21 07:44:32;;;;;;;3.45;1.50;;;;;;;21.49;47.76;99684.56;16112557;19;129598;-51
2023/09/21 07:49:55;;;;;;;4.38;1.50;;;;;;;21.49;47.53;99673.44;16111374;19;129756;-52
2023/09/21 07:55:17;;;;;;;2.70;1.58;;;;;;;21.48;47.54;99682.88;16114447;19;130381;-51
2023/09/21 08:00:40;;;;;;;3.15;1.73;;;;;;;21.48;47.59;99695.94;16111650;19;131180;-54
2023/09/21 08:06:02;;;;;;;3.72;1.67;;;;;;;21.48;47.69;99705.13;16113351;19;129676;-51
2023/09/21 08:11:24;;;;;;;1.90;1.13;;;;;;;21.48;47.34;99696.78;16114770;19;131727;-53
2023/09/21 08:16:46;;;;;;;2.80;1.48;;;;;;;21.48;47.35;99704.28;16113600;19;130933;-47
2023/09/21 08:22:09;;;;;;;2.97;1.42;;;;;;;21.49;47.65;99717.13;16113112;19;129250;-50
2023/09/21 08:27:31;;;;;;;3.72;1.48;;;;;;;21.48;47.47;99710.69;16112226;19;129778;-51
2023/09/21 08:32:53;;;;;;;2.70;1.38;;;;;;;21.49;47.81;99708.75;16111145;19;130524;-51
2023/09/21 08:38:18;;;;;;;2.15;1.40;;;;;;;21.49;47.62;99701.25;16118446;19;130585;-55
2023/09/21 08:43:42;;;;;;;2.33;1.20;;;;;;;21.49;47.67;99711.53;16126275;19;129990;-51
2023/09/21 08:49:06;;;;;;;2.05;1.27;;;;;;;21.49;47.76;99706.81;16124821;19;132094;-53
2023/09/21 08:54:28;;;;;;;3.35;1.50;;;;;;;21.49;47.50;99700.41;16126185;19;130599;-51
2023/09/21 08:59:54;;;;;;;2.25;1.23;;;;;;;21.49;47.47;99678.16;16126276;19;130466;-46
2023/09/21 09:05:17;;;;;;;4.43;1.30;;;;;;;21.48;47.62;99699.56;16125499;19;129187;-49
2023/09/21 09:10:43;;;;;;;3.25;1.40;;;;;;;21.46;47.57;99679.56;16123942;19;130457;-52
2023/09/21 09:16:07;;;;;;;6.82;1.33;;;;;;;21.47;47.82;99675.66;16125702;19;130984;-54
2023/09/21 09:21:30;;;;;;;4.07;1.37;;;;;;;21.51;48.01;99681.47;16124537;19;130156;-52
2023/09/21 09:26:52;;;;;;;3.80;1.45;;;;;;;21.54;48.08;99674.50;16127237;19;131587;-52
2023/09/21 09:32:18;;;;;;;2.55;1.15;;;;;;;21.57;47.98;99690.59;16122677;19;130237;-52
2023/09/21 09:37:42;;;;;;;1.77;1.13;;;;;;;21.58;47.70;99687.53;16123950;19;129780;-56
2023/09/21 09:43:07;;;;;;;3.47;1.30;;;;;;;21.60;48.19;99682.47;16125098;19;129157;-52
2023/09/21 09:48:32;;;;;;;;;;;;;;;21.59;47.79;99660.53;16120790;19;129733;-53
2023/09/21 09:53:56;;;;;;;2.53;1.30;;;;;;;21.63;48.16;99656.84;16125988;19;130598;-54
2023/09/21 09:59:21;;;;;;;5.00;1.40;;;;;;;21.66;48.38;99661.00;16122544;19;130410;-51
2023/09/21 10:04:46;;;;;;;4.63;1.23;;;;;;;21.65;48.22;99659.34;16121166;19;129386;-52
2023/09/21 10:10:15;;;;;;;2.25;1.05;;;;;;;21.67;48.11;99657.06;16122696;19;129853;-50
2023/09/21 10:15:37;;;;;;;3.35;0.90;;;;;;;21.68;47.96;99636.47;16115672;19;129760;-56
2023/09/21 10:21:31;;;;;;;4.55;1.33;;;;;;;21.70;48.25;99650.91;16118856;19;129497;-53
2023/09/21 10:26:58;;;;;;;2.55;1.17;;;;;;;21.70;47.90;99639.78;16120514;19;129979;-54
2023/09/21 10:32:23;;;;;;;3.05;1.35;;;;;;;21.70;48.25;99701.00;16119109;19;130408;-48
2023/09/21 10:37:50;;;;;;;3.05;1.20;;;;;;;21.70;48.12;99717.72;16119075;19;131488;-51
2023/09/21 10:43:36;;;;;;;2.83;1.27;;;;;;;21.71;48.14;99708.22;16119044;19;131356;-52
2023/09/21 10:49:04;;;;;;;2.20;1.10;;;;;;;21.72;48.29;99701.53;16113178;19;129869;-54
2023/09/21 10:54:26;;;;;;;1.55;1.10;;;;;;;21.71;48.51;99708.22;16116586;19;129554;-51
2023/09/21 10:59:49;;;;;;;3.30;1.40;;;;;;;21.72;48.53;99726.59;16121188;19;130366;-55
2023/09/21 11:05:31;;;;;;;1.63;1.02;;;;;;;21.71;48.22;99730.50;16114891;19;134901;-56
2023/09/21 11:10:54;;;;;;;2.85;1.20;;;;;;;21.71;48.37;99724.94;16114782;19;131210;-55
2023/09/21 11:16:16;;;;;;;1.90;1.17;;;;;;;21.70;48.51;99717.72;16111767;19;129659;-55
2023/09/21 11:21:38;;;;;;;1.67;1.00;;;;;;;21.70;48.28;99706.56;16111212;19;129884;-55
2023/09/21 11:27:03;;;;;;;4.30;1.10;;;;;;;21.70;48.33;99698.22;16114144;19;132247;-59
2023/09/21 11:32:27;;;;;;;1.88;1.00;;;;;;;21.71;48.17;99691.53;16114315;19;130968;-55
2023/09/21 11:37:51;;;;;;;3.53;0.90;;;;;;;21.70;48.14;99658.44;16114042;19;131396;-54
2023/09/21 11:43:13;;;;;;;2.53;0.88;;;;;;;21.71;48.11;99658.13;16114627;19;131345;-55
2023/09/21 11:48:40;;;;;;;1.50;0.82;;;;;;;21.71;48.40;99651.75;16108349;19;130904;-54
2023/09/21 11:54:04;;;;;;;1.60;0.93;;;;;;;21.70;47.82;99656.47;16114302;19;130056;-56
2023/09/21 11:59:26;;;;;;;1.50;0.82;;;;;;;21.72;47.86;99664.53;16111040;19;130631;-55
2023/09/21 12:04:49;;;;;;;1.20;0.70;;;;;;;21.71;48.09;99658.13;16107856;19;129203;-55
2023/09/21 12:10:13;;;;;;;2.00;0.90;;;;;;;21.71;48.31;99655.34;16111957;19;133680;-55
2023/09/21 12:15:37;;;;;;;1.58;0.80;;;;;;;21.71;48.11;99674.84;16107854;19;129337;-53
2023/09/21 12:21:00;;;;;;;1.88;1.05;;;;;;;21.69;48.05;99665.13;16110507;19;130703;-54
2023/09/21 12:26:23;;;;;;;1.45;0.85;;;;;;;21.69;48.33;99628.94;16110651;19;129769;-54
2023/09/21 12:31:45;;;;;;;1.80;0.90;;;;;;;21.69;47.94;99660.38;16106160;19;130967;-49
2023/09/21 12:37:21;;;;;;;1.20;0.90;;;;;;;21.69;48.09;99660.38;16108119;19;130000;-54
2023/09/21 12:42:45;;;;;;;1.70;0.88;;;;;;;21.69;48.06;99638.13;16111204;19;129362;-52
2023/09/21 12:48:08;;;;;;;1.95;0.85;;;;;;;21.70;48.40;99650.91;16109590;19;129433;-56
2023/09/21 12:53:31;;;;;;;1.23;0.90;;;;;;;21.71;48.58;99652.56;16114265;19;129712;-59
2023/09/21 12:58:58;;;;;;;2.45;0.73;;;;;;;21.72;48.28;99645.06;16110527;19;129878;-57
2023/09/21 13:04:20;;;;;;;2.08;0.90;;;;;;;21.70;48.59;99606.38;16109522;19;129976;-57
2023/09/21 13:09:45;;;;;;;1.10;0.73;;;;;;;21.71;48.24;99596.91;16113855;19;131691;-52
2023/09/21 13:15:14;;;;;;;2.05;0.80;;;;;;;21.72;48.38;99567.94;16110461;19;129866;-55
2023/09/21 13:20:37;;;;;;;1.90;0.60;;;;;;;21.74;48.10;99545.34;16108399;19;130832;-53
2023/09/21 13:26:00;;;;;;;1.63;0.90;;;;;;;21.73;48.55;99527.84;16121261;19;129344;-58
2023/09/21 13:31:24;;;;;;;1.70;0.70;;;;;;;21.75;48.26;99533.09;16124698;19;131536;-57
2023/09/21 13:36:47;;;;;;;1.42;0.90;;;;;;;21.73;48.43;99530.63;16123534;19;129375;-55
2023/09/21 13:42:09;;;;;;;1.30;0.93;;;;;;;21.75;48.07;99508.88;16123124;19;131385;-56
2023/09/21 13:47:31;;;;;;;2.15;0.70;;;;;;;21.75;48.30;99508.03;16124431;19;130540;-57
2023/09/21 13:52:53;;;;;;;3.15;0.90;;;;;;;21.74;48.40;99540.63;16123520;19;129508;-54
2023/09/21 13:58:15;;;;;;;1.63;0.60;;;;;;;21.73;48.44;99525.06;16123591;19;129717;-58
2023/09/21 14:03:38;;;;;;;2.03;0.63;;;;;;;21.72;48.44;99517.84;16121988;19;129252;-59
2023/09/21 14:09:01;;;;;;;1.88;0.73;;;;;;;21.72;48.23;99517.03;16123810;19;130112;-57
2023/09/21 14:14:23;;;;;;;2.20;0.70;;;;;;;21.71;48.46;99582.97;16125954;19;129758;-50
2023/09/21 14:19:45;;;;;;;1.40;0.70;;;;;;;21.71;48.53;99535.66;16119463;19;129477;-58
2023/09/21 14:25:08;;;;;;;2.30;0.90;;;;;;;21.70;48.51;99534.00;16120025;19;130956;-54
2023/09/21 14:30:30;;;;;;;1.40;0.80;;;;;;;21.69;48.60;99537.91;16121543;19;131084;-59
2023/09/21 14:35:54;;;;;;;0.73;0.55;;;;;;;21.68;48.32;99544.59;16116921;19;129740;-59
2023/09/21 14:41:16;;;;;;;1.60;0.80;;;;;;;21.68;48.52;99547.38;16124482;19;129653;-59
2023/09/21 14:46:38;;;;;;;2.58;0.60;;;;;;;21.65;48.54;99537.69;16120386;19;129442;-48
2023/09/21 14:52:00;;;;;;;1.35;0.73;;;;;;;21.65;48.33;99545.22;16118946;19;130234;-53
2023/09/21 14:57:24;;;;;;;1.02;0.70;;;;;;;21.63;48.79;99541.91;16120567;19;130589;-54
2023/09/21 15:02:48;;;;;;;1.38;0.65;;;;;;;21.62;48.35;99520.78;16119897;19;130926;-54
2023/09/21 15:08:11;;;;;;;1.60;0.80;;;;;;;21.61;48.73;99510.78;16120743;19;130489;-57
2023/09/21 15:13:35;;;;;;;0.98;0.70;;;;;;;21.60;48.59;99501.56;16117618;19;131918;-53
2023/09/21 15:18:57;;;;;;;1.52;0.70;;;;;;;21.60;48.32;99481.28;16116993;19;131000;-54
2023/09/21 15:24:20;;;;;;;0.75;0.60;;;;;;;21.59;48.83;99493.53;16114770;19;131257;-52
2023/09/21 15:29:42;;;;;;;1.13;0.52;;;;;;;21.59;48.66;99493.53;16118508;19;131198;-54
2023/09/21 15:35:05;;;;;;;2.03;0.60;;;;;;;21.58;48.61;99512.22;16118518;19;129385;-55
2023/09/21 15:40:27;;;;;;;1.20;0.75;;;;;;;21.57;48.87;99527.25;16114448;19;131448;-55
2023/09/21 15:45:50;;;;;;;0.95;0.60;;;;;;;21.56;48.90;99533.94;16115973;19;131582;-56
2023/09/21 15:51:13;;;;;;;1.38;0.68;;;;;;;21.56;48.44;99539.50;16109944;19;131322;-54
2023/09/21 15:56:35;;;;;;;1.60;0.60;;;;;;;21.56;48.67;99531.16;16107531;19;130842;-54
2023/09/21 16:01:57;;;;;;;0.50;0.40;;;;;;;21.54;48.71;99513.94;16115563;19;129816;-57
2023/09/21 16:07:19;;;;;;;1.13;0.70;;;;;;;21.54;48.77;99518.69;16114162;19;130920;-55
2023/09/21 16:12:45;;;;;;;1.70;0.70;;;;;;;21.51;48.47;99509.81;16116880;19;130872;-54
2023/09/21 16:18:07;;;;;;;2.05;0.75;;;;;;;21.50;48.62;99491.44;16112675;19;131039;-55
2023/09/21 16:23:30;;;;;;;1.55;0.77;;;;;;;21.49;48.78;99506.50;16114875;19;130332;-55
2023/09/21 16:28:53;;;;;;;0.98;0.60;;;;;;;21.49;48.70;99498.13;16112693;19;130316;-56
2023/09/21 16:34:15;;;;;;;1.17;0.50;;;;;;;21.48;48.60;99493.66;16111432;19;131074;-56
2023/09/21 16:39:38;;;;;;;1.63;0.75;;;;;;;21.48;48.51;99492.81;16109917;19;130844;-57
2023/09/21 16:45:00;;;;;;;1.60;0.75;;;;;;;21.47;48.52;99477.28;16109163;19;129760;-55
2023/09/21 16:50:22;;;;;;;0.90;0.70;;;;;;;21.46;48.92;99495.91;16108967;19;130378;-55
2023/09/21 16:55:44;;;;;;;2.63;0.68;;;;;;;21.46;48.59;99497.88;16111328;19;130654;-53
2023/09/21 17:01:06;;;;;;;2.60;0.80;;;;;;;21.44;48.92;99498.16;16122074;19;130026;-56
2023/09/21 17:06:28;;;;;;;2.40;0.88;;;;;;;21.44;48.92;99512.06;16128075;19;131128;-54
2023/09/21 17:11:51;;;;;;;1.20;0.65;;;;;;;21.43;48.88;99524.34;16130022;19;129734;-54
2023/09/21 17:17:13;;;;;;;1.55;0.70;;;;;;;21.43;48.99;99507.63;16123677;19;130443;-55
2023/09/21 17:22:36;;;;;;;2.00;0.73;;;;;;;21.43;48.82;99498.47;16123574;19;130886;-55
2023/09/21 17:27:59;;;;;;;2.83;0.88;;;;;;;21.41;49.21;99476.53;16124384;19;131189;-54
2023/09/21 17:33:21;;;;;;;2.50;0.93;;;;;;;21.41;48.89;99473.75;16117622;19;130207;-54
2023/09/21 17:38:43;;;;;;;1.35;0.73;;;;;;;21.40;49.06;99496.28;16019995;19;139473;-55
2023/09/21 17:44:05;;;;;;;1.75;0.80;;;;;;;21.40;48.98;99538.03;16120611;19;130378;-57
2023/09/21 17:49:27;;;;;;;1.42;0.80;;;;;;;21.40;48.88;99527.75;16122613;19;130836;-54
2023/09/21 17:54:49;;;;;;;5.25;1.05;;;;;;;21.43;49.06;99546.59;16120219;19;129494;-54
2023/09/21 18:00:12;;;;;;;2.67;0.90;;;;;;;21.45;48.95;99526.84;16119134;19;130961;-56
2023/09/21 18:05:34;;;;;;;4.70;1.23;;;;;;;21.46;48.81;99507.03;16120820;19;130431;-56
2023/09/21 18:10:56;;;;;;;2.75;0.88;;;;;;;21.49;48.85;99517.63;16119041;19;131120;-52
2023/09/21 18:16:18;;;;;;;5.63;0.85;;;;;;;21.50;49.17;99541.53;16120257;19;129988;-54
2023/09/21 18:21:41;;;;;;;5.65;1.05;;;;;;;21.50;49.37;99552.66;16119896;19;131364;-58
2023/09/21 18:27:03;;;;;;;6.70;0.88;;;;;;;21.50;49.06;99558.22;16121930;19;130241;-54
2023/09/21 18:32:25;;;;;;;2.03;0.98;;;;;;;21.50;48.95;99563.78;16115133;19;131114;-56
2023/09/21 18:37:47;;;;;;;3.22;1.13;;;;;;;21.51;48.88;99567.38;16123777;19;129579;-56
2023/09/21 18:43:10;;;;;;;3.78;1.08;;;;;;;21.50;49.36;99557.38;16117496;19;129343;-53
2023/09/21 18:48:33;;;;;;;2.90;0.80;;;;;;;21.49;49.12;99555.72;16112937;19;130386;-57
2023/09/21 18:53:55;;;;;;;2.72;1.00;;;;;;;21.49;49.17;99566.84;16120206;19;130530;-55
2023/09/21 18:59:17;;;;;;;1.77;0.98;;;;;;;21.48;48.86;99581.88;16117752;19;131851;-58
2023/09/21 19:04:40;;;;;;;1.63;0.88;;;;;;;21.48;49.33;99598.56;16114151;19;129522;-57
2023/09/21 19:10:06;;;;;;;2.55;0.90;;;;;;;21.47;49.05;99600.53;16117121;19;129441;-56
2023/09/21 19:15:29;;;;;;;2.30;0.95;;;;;;;21.46;49.14;99612.78;16116719;19;130595;-55
2023/09/21 19:20:51;;;;;;;3.15;0.98;;;;;;;21.46;49.12;99611.97;16113352;19;129609;-55
2023/09/21 19:26:13;;;;;;;3.40;1.05;;;;;;;21.44;48.96;99609.47;16115086;19;129788;-54
2023/09/21 19:31:35;;;;;;;3.80;0.98;;;;;;;21.43;49.18;99624.50;16114465;19;130549;-58
2023/09/21 19:36:57;;;;;;;4.13;1.17;;;;;;;21.43;49.11;99637.59;16114066;19;130735;-58
2023/09/21 19:42:20;;;;;;;5.47;1.00;;;;;;;21.45;49.34;99633.38;16109165;19;129345;-59
2023/09/21 19:47:42;;;;;;;6.18;1.00;;;;;;;21.51;49.36;99648.94;16109933;19;130565;-60
2023/09/21 19:53:10;;;;;;;4.22;1.00;;;;;;;21.57;49.81;99657.19;16109983;19;130054;-55
2023/09/21 19:58:32;;;;;;;3.90;1.30;;;;;;;21.60;49.98;99668.56;16115027;19;130272;-62
2023/09/21 20:03:54;;;;;;;3.85;1.17;;;;;;;21.63;50.55;99662.41;16116382;19;129804;-51
2023/09/21 20:09:17;;;;;;;3.88;0.80;;;;;;;21.65;50.16;99664.91;16113182;19;129459;-57
2023/09/21 20:14:40;;;;;;;5.20;1.17;;;;;;;21.66;50.44;99675.72;16114387;19;129863;-55
2023/09/21 20:20:02;;;;;;;6.97;1.08;;;;;;;21.68;50.38;99664.28;16116672;19;130093;-61
2023/09/21 20:25:25;;;;;;;2.35;1.00;;;;;;;21.70;50.34;99672.38;16112575;19;129374;-50
2023/09/21 20:30:48;;;;;;;7.00;1.08;;;;;;;21.70;50.47;99683.50;16113901;19;130628;-59
2023/09/21 20:36:11;;;;;;;3.45;0.80;;;;;;;21.71;50.49;99693.50;16125880;19;129958;-56
2023/09/21 20:41:33;;;;;;;1.75;0.88;;;;;;;21.71;50.54;99699.88;16124316;19;130931;-54
2023/09/21 20:46:55;;;;;;;3.22;0.90;;;;;;;21.69;50.05;99716.06;16121775;19;130738;-57
2023/09/21 20:52:17;;;;;;;4.15;1.13;;;;;;;21.67;50.64;99718.28;16122425;19;130419;-56
2023/09/21 20:57:39;;;;;;;3.15;0.88;;;;;;;21.65;50.30;99715.00;16126650;19;131442;-57
2023/09/21 21:03:02;;;;;;;4.05;1.15;;;;;;;21.63;50.16;99722.81;16123025;19;130385;-53
2023/09/21 21:08:26;;;;;;;4.13;1.00;;;;;;;21.61;50.18;99748.16;16125999;19;129790;-56
2023/09/21 21:13:48;;;;;;;2.80;0.80;;;;;;;21.59;50.19;99749.56;16125723;19;129006;-52
2023/09/21 21:19:10;;;;;;;3.45;0.98;;;;;;;21.58;50.04;99756.25;16124507;19;130317;-55
2023/09/21 21:24:33;;;;;;;2.47;0.80;;;;;;;21.55;50.10;99760.47;16122983;19;130457;-54
2023/09/21 21:29:55;;;;;;;4.35;0.90;;;;;;;21.54;49.81;99774.69;16128035;19;130423;-55
2023/09/21 21:35:17;;;;;;;3.17;1.10;;;;;;;21.53;50.21;99779.41;16119037;19;131524;-53
2023/09/21 21:40:42;;;;;;;3.13;0.70;;;;;;;21.51;49.99;99790.00;16121773;19;130033;-56
2023/09/21 21:46:04;;;;;;;3.05;0.75;;;;;;;21.48;49.71;99799.75;16118369;19;130688;-55
2023/09/21 21:51:27;;;;;;;1.45;0.80;;;;;;;21.47;49.68;99803.66;16116314;19;137301;-55
2023/09/21 21:56:50;;;;;;;1.92;0.70;;;;;;;21.45;49.95;99800.31;16118607;19;131083;-55
2023/09/21 22:02:12;;;;;;;1.63;0.80;;;;;;;21.44;49.69;99798.66;16118586;19;130398;-55
2023/09/21 22:07:35;;;;;;;1.98;0.90;;;;;;;21.43;49.62;99801.75;16118253;19;130217;-52
2023/09/21 22:12:58;;;;;;;1.45;0.80;;;;;;;21.41;49.57;99809.53;16119723;19;131500;-54
2023/09/21 22:18:22;;;;;;;2.05;0.95;;;;;;;21.40;50.05;99807.88;16118496;19;131053;-55
2023/09/21 22:23:44;;;;;;;2.13;0.90;;;;;;;21.39;49.85;99812.63;16119440;19;129884;-53
2023/09/21 22:29:07;;;;;;;3.15;0.93;;;;;;;21.37;49.56;99821.25;16116380;19;129616;-52
2023/09/21 22:34:29;;;;;;;1.40;0.70;;;;;;;21.37;49.84;99823.22;16116912;19;129778;-54
2023/09/21 22:39:52;;;;;;;2.30;0.88;;;;;;;21.34;49.84;99821.84;16119789;19;135397;-53
2023/09/21 22:45:15;;;;;;;1.17;0.70;;;;;;;21.33;49.56;99836.03;16114343;19;130050;-55
2023/09/21 22:50:37;;;;;;;3.45;0.95;;;;;;;21.33;50.03;99844.38;16116295;19;131367;-56
2023/09/21 22:56:00;;;;;;;1.15;0.65;;;;;;;21.30;49.71;99840.25;16115952;19;130200;-55
2023/09/21 23:01:23;;;;;;;1.17;0.70;;;;;;;21.30;49.78;99833.84;16115250;19;131225;-54
2023/09/21 23:06:45;;;;;;;0.88;0.70;;;;;;;21.28;50.00;99828.56;16117927;19;129634;-56
2023/09/21 23:12:08;;;;;;;1.30;0.70;;;;;;;21.28;49.46;99822.19;16113114;19;129631;-54
2023/09/21 23:17:30;;;;;;;1.70;0.60;;;;;;;21.27;49.71;99826.09;16113537;19;129700;-54
2023/09/21 23:22:53;;;;;;;1.52;0.60;;;;;;;21.26;49.98;99818.88;16119630;19;130638;-56
2023/09/21 23:28:15;;;;;;;1.40;0.68;;;;;;;21.25;49.93;99814.44;16113112;19;130089;-56
2023/09/21 23:33:38;;;;;;;2.00;0.70;;;;;;;21.24;49.40;99799.66;16114440;19;130435;-57
2023/09/21 23:39:00;;;;;;;1.20;0.80;;;;;;;21.25;49.92;99794.97;16115313;19;129572;-57
2023/09/21 23:44:23;;;;;;;2.03;0.60;;;;;;;21.21;49.74;99792.75;16114406;19;131320;-56
2023/09/21 23:49:46;;;;;;;1.67;0.60;;;;;;;21.21;49.87;99803.88;16111676;19;130459;-56
2023/09/21 23:55:10;;;;;;;2.72;1.02;;;;;;;21.21;49.85;99800.28;16118228;19;129835;-58
